createdAt,value
2023-02-03T00:00:20.477Z,83.17
2023-02-03T00:02:48.095Z,83.74
2023-02-03T00:05:17.191Z,83.16
2023-02-03T00:07:45.080Z,82.88
2023-02-03T00:10:12.773Z,83.07
2023-02-03T00:12:40.457Z,82.39
2023-02-03T00:15:09.605Z,81.90
2023-02-03T00:17:37.210Z,81.66
2023-02-03T00:20:05.833Z,81.05
2023-02-03T00:22:34.826Z,81.56
2023-02-03T00:25:03.040Z,81.29
2023-02-03T00:27:30.659Z,81.54
2023-02-03T00:29:59.598Z,81.81
2023-02-03T00:32:27.316Z,82.34
2023-02-03T00:34:55.795Z,81.31
2023-02-03T00:37:23.987Z,80.86
2023-02-03T00:39:54.163Z,80.93
2023-02-03T00:42:21.767Z,80.49
2023-02-03T00:44:49.390Z,80.12
2023-02-03T00:47:18.066Z,80.33
2023-02-03T00:49:45.741Z,80.10
2023-02-03T00:52:13.547Z,80.50
2023-02-03T00:54:41.156Z,80.16
2023-02-03T00:57:11.372Z,80.11
2023-02-03T00:59:42.662Z,80.17
2023-02-03T01:02:11.173Z,80.59
2023-02-03T01:04:39.280Z,80.43
2023-02-03T01:07:06.990Z,80.81
2023-02-03T01:09:37.519Z,80.27
2023-02-03T01:12:06.497Z,80.63
2023-02-03T01:14:36.212Z,81.69
2023-02-03T01:17:06.127Z,80.94
2023-02-03T01:19:33.857Z,80.77
2023-02-03T01:22:01.923Z,80.82
2023-02-03T01:24:30.716Z,80.74
2023-02-03T01:26:59.113Z,80.18
2023-02-03T01:29:28.984Z,81.08
2023-02-03T01:31:58.444Z,81.12
2023-02-03T01:34:26.217Z,81.04
2023-02-03T01:36:54.164Z,81.08
2023-02-03T01:39:22.712Z,81.05
2023-02-03T01:41:50.320Z,81.44
2023-02-03T01:44:40.941Z,82.78
2023-02-03T01:47:17.277Z,82.09
2023-02-03T01:49:49.620Z,82.96
2023-02-03T01:52:18.554Z,82.40
2023-02-03T01:54:49.089Z,81.29
2023-02-03T01:57:21.115Z,81.13
2023-02-03T01:59:50.836Z,80.98
2023-02-03T02:02:20.316Z,80.72
2023-02-03T02:04:54.810Z,80.39
2023-02-03T02:07:22.952Z,81.06
2023-02-03T02:09:50.884Z,81.01
2023-02-03T02:12:19.023Z,81.00
2023-02-03T02:14:47.955Z,80.69
2023-02-03T02:17:34.301Z,80.09
2023-02-03T02:20:33.641Z,80.62
2023-02-03T02:23:18.676Z,79.69
2023-02-03T02:26:09.024Z,79.51
2023-02-03T02:29:00.313Z,81.61
2023-02-03T02:31:50.318Z,82.17
2023-02-03T02:34:26.714Z,82.04
2023-02-03T02:37:05.489Z,83.23
2023-02-03T02:39:40.863Z,84.12
2023-02-03T02:42:16.999Z,82.92
2023-02-03T02:44:50.374Z,81.88
2023-02-03T02:47:21.604Z,81.97
2023-02-03T02:49:59.104Z,81.71
2023-02-03T02:52:30.406Z,82.22
2023-02-03T02:55:06.858Z,82.14
2023-02-03T02:57:37.440Z,81.91
2023-02-03T03:00:06.076Z,81.95
2023-02-03T03:02:37.442Z,82.34
2023-02-03T03:05:06.933Z,82.99
2023-02-03T03:07:44.906Z,81.86
2023-02-03T03:10:16.263Z,82.38
2023-02-03T03:12:50.223Z,82.49
2023-02-03T03:15:23.970Z,82.81
2023-02-03T03:18:00.610Z,82.28
2023-02-03T03:20:29.174Z,82.71
2023-02-03T03:23:01.423Z,82.28
2023-02-03T03:25:36.105Z,82.03
2023-02-03T03:28:10.969Z,81.35
2023-02-03T03:30:40.329Z,81.51
2023-02-03T03:33:10.907Z,81.47
2023-02-03T03:35:43.588Z,81.43
2023-02-03T03:38:19.198Z,82.63
2023-02-03T03:40:52.703Z,83.48
2023-02-03T03:43:23.431Z,82.44
2023-02-03T03:45:56.781Z,82.34
2023-02-03T03:48:31.662Z,82.02
2023-02-03T03:51:05.248Z,81.82
2023-02-03T03:53:38.076Z,82.22
2023-02-03T03:56:09.452Z,81.99
2023-02-03T03:58:41.924Z,82.04
2023-02-03T04:01:10.075Z,82.86
2023-02-03T04:03:43.207Z,81.64
2023-02-03T04:06:10.942Z,81.99
2023-02-03T04:08:39.581Z,82.12
2023-02-03T04:11:07.423Z,82.48
2023-02-03T04:13:35.473Z,82.17
2023-02-03T04:16:03.741Z,82.18
2023-02-03T04:18:31.736Z,82.14
2023-02-03T04:21:00.722Z,82.02
2023-02-03T04:23:28.768Z,82.91
2023-02-03T04:25:56.356Z,82.09
2023-02-03T04:28:24.897Z,83.24
2023-02-03T04:30:52.488Z,83.79
2023-02-03T04:33:20.462Z,83.13
2023-02-03T04:35:48.064Z,82.84
2023-02-03T04:38:17.268Z,83.27
2023-02-03T04:40:45.870Z,82.99
2023-02-03T04:43:14.223Z,83.14
2023-02-03T04:45:42.238Z,83.83
2023-02-03T04:48:09.884Z,83.06
2023-02-03T04:50:38.154Z,83.19
2023-02-03T04:53:05.766Z,82.88
2023-02-03T04:55:35.346Z,83.21
2023-02-03T04:58:03.025Z,83.22
2023-02-03T05:00:31.079Z,83.42
2023-02-03T05:02:58.818Z,84.23
2023-02-03T05:05:26.807Z,84.96
2023-02-03T05:07:54.396Z,84.62
2023-02-03T05:10:22.824Z,84.02
2023-02-03T05:12:51.807Z,83.11
2023-02-03T05:15:20.154Z,83.17
2023-02-03T05:17:47.803Z,83.34
2023-02-03T05:20:16.148Z,83.48
2023-02-03T05:22:43.757Z,82.58
2023-02-03T05:25:11.999Z,82.84
2023-02-03T05:27:40.587Z,82.34
2023-02-03T05:30:11.546Z,81.79
2023-02-03T05:32:39.228Z,81.71
2023-02-03T05:35:07.625Z,81.90
2023-02-03T05:37:35.190Z,82.01
2023-02-03T05:40:16.742Z,81.85
2023-02-03T05:42:48.371Z,82.11
2023-02-03T05:45:18.200Z,82.20
2023-02-03T05:47:46.093Z,81.87
2023-02-03T05:50:13.851Z,82.04
2023-02-03T05:52:41.522Z,82.01
2023-02-03T05:55:09.392Z,82.53
2023-02-03T05:57:36.945Z,82.91
2023-02-03T06:00:06.377Z,83.40
2023-02-03T06:02:40.576Z,82.90
2023-02-03T06:05:08.918Z,82.88
2023-02-03T06:07:36.828Z,82.85
2023-02-03T06:10:05.169Z,82.68
2023-02-03T06:12:32.778Z,82.59
2023-02-03T06:15:00.838Z,82.91
2023-02-03T06:17:28.417Z,81.24
2023-02-03T06:19:57.592Z,80.05
2023-02-03T06:22:25.205Z,80.12
2023-02-03T06:24:53.477Z,79.72
2023-02-03T06:27:21.152Z,79.70
2023-02-03T06:29:49.467Z,80.15
2023-02-03T06:32:17.180Z,79.83
2023-02-03T06:34:44.972Z,80.64
2023-02-03T06:37:13.997Z,80.91
2023-02-03T06:39:41.605Z,80.66
2023-02-03T06:42:09.590Z,79.61
2023-02-03T06:44:37.182Z,79.99
2023-02-03T06:47:05.642Z,80.62
2023-02-03T06:49:33.408Z,79.97
2023-02-03T06:52:01.021Z,79.50
2023-02-03T06:54:29.926Z,79.82
2023-02-03T06:56:58.324Z,80.58
2023-02-03T06:59:26.029Z,81.00
2023-02-03T07:01:54.271Z,80.85
2023-02-03T07:04:21.885Z,80.90
2023-02-03T07:06:49.818Z,80.74
2023-02-03T07:09:17.449Z,81.24
2023-02-03T07:11:47.387Z,80.11
2023-02-03T07:14:15.069Z,79.42
2023-02-03T07:16:43.626Z,79.12
2023-02-03T07:19:11.358Z,79.04
2023-02-03T07:21:39.391Z,78.60
2023-02-03T07:24:07.388Z,78.51
2023-02-03T07:26:35.316Z,78.39
2023-02-03T07:29:04.259Z,78.17
2023-02-03T07:31:32.918Z,78.57
2023-02-03T07:34:01.084Z,77.92
2023-02-03T07:36:29.154Z,78.04
2023-02-03T07:38:56.919Z,77.79
2023-02-03T07:41:24.708Z,77.94
2023-02-03T07:43:52.285Z,77.95
2023-02-03T07:46:21.596Z,78.42
2023-02-03T07:48:49.211Z,77.27
2023-02-03T07:51:17.077Z,77.85
2023-02-03T07:53:44.651Z,77.48
2023-02-03T07:56:13.143Z,77.71
2023-02-03T07:58:40.807Z,76.69
2023-02-03T08:01:12.679Z,77.54
2023-02-03T08:03:41.958Z,76.74
2023-02-03T08:06:10.124Z,76.18
2023-02-03T08:08:38.111Z,76.30
2023-02-03T08:11:06.173Z,75.44
2023-02-03T08:13:33.992Z,75.60
2023-02-03T08:16:01.720Z,75.58
2023-02-03T08:18:32.545Z,75.43
2023-02-03T08:21:04.060Z,75.77
2023-02-03T08:23:32.085Z,76.05
2023-02-03T08:25:59.722Z,75.12
2023-02-03T08:28:28.039Z,75.66
2023-02-03T08:30:56.571Z,75.23
2023-02-03T08:33:24.731Z,74.34
2023-02-03T08:35:52.328Z,74.65
2023-02-03T08:38:21.873Z,74.39
2023-02-03T08:40:49.492Z,73.97
2023-02-03T08:43:17.549Z,74.16
2023-02-03T08:45:45.214Z,74.87
2023-02-03T08:48:13.520Z,74.81
2023-02-03T08:50:42.433Z,75.38
2023-02-03T08:53:10.054Z,74.74
2023-02-03T08:55:40.988Z,75.63
2023-02-03T08:58:09.257Z,74.89
2023-02-03T09:00:36.852Z,74.71
2023-02-03T09:03:05.056Z,74.67
2023-02-03T09:05:33.503Z,74.62
2023-02-03T09:08:01.460Z,74.70
2023-02-03T09:10:29.579Z,75.24
2023-02-03T09:12:59.232Z,74.99
2023-02-03T09:15:27.034Z,74.54
2023-02-03T09:17:57.060Z,75.44
2023-02-03T09:20:26.356Z,74.02
2023-02-03T09:22:55.314Z,74.86
2023-02-03T09:25:22.909Z,73.53
2023-02-03T09:27:50.823Z,75.11
2023-02-03T09:30:20.219Z,74.01
2023-02-03T09:32:54.012Z,75.23
2023-02-03T09:35:21.694Z,73.74
2023-02-03T09:37:50.059Z,72.84
2023-02-03T09:40:23.100Z,72.81
2023-02-03T09:43:07.829Z,73.57
2023-02-03T09:45:36.945Z,72.17
2023-02-03T09:48:11.535Z,72.28
2023-02-03T09:50:42.207Z,72.67
2023-02-03T09:53:25.075Z,73.34
2023-02-03T09:55:52.758Z,72.74
2023-02-03T09:58:23.373Z,73.47
2023-02-03T10:00:55.382Z,72.64
2023-02-03T10:03:33.736Z,72.73
2023-02-03T10:06:13.619Z,73.12
2023-02-03T10:08:56.656Z,74.14
2023-02-03T10:11:41.715Z,73.60
2023-02-03T10:14:22.334Z,72.77
2023-02-03T10:17:06.543Z,72.76
2023-02-03T10:19:43.373Z,73.22
2023-02-03T10:22:16.140Z,73.72
2023-02-03T10:24:52.252Z,72.61
2023-02-03T10:27:23.310Z,73.73
2023-02-03T10:29:58.527Z,72.32
2023-02-03T10:32:28.127Z,73.33
2023-02-03T10:34:56.143Z,71.45
2023-02-03T10:37:30.280Z,72.27
2023-02-03T10:40:01.819Z,72.92
2023-02-03T10:42:51.055Z,70.53
2023-02-03T10:45:19.605Z,71.04
2023-02-03T10:47:51.797Z,71.46
2023-02-03T10:50:24.761Z,73.16
2023-02-03T10:52:52.374Z,70.80
2023-02-03T10:55:31.859Z,70.90
2023-02-03T10:58:11.496Z,70.58
2023-02-03T11:00:40.658Z,71.04
2023-02-03T11:03:22.968Z,71.14
2023-02-03T11:06:05.717Z,71.71
2023-02-03T11:08:34.595Z,70.79
2023-02-03T11:11:07.135Z,69.47
2023-02-03T11:13:35.635Z,70.21
2023-02-03T11:16:05.398Z,70.99
2023-02-03T11:18:59.349Z,72.39
2023-02-03T11:21:30.925Z,72.48
2023-02-03T11:24:04.661Z,71.32
2023-02-03T11:26:36.827Z,71.01
2023-02-03T11:29:08.469Z,71.44
2023-02-03T11:31:37.517Z,72.52
2023-02-03T11:34:16.389Z,72.29
2023-02-03T11:36:44.040Z,73.52
2023-02-03T11:39:19.431Z,74.06
2023-02-03T11:41:48.133Z,74.36
2023-02-03T11:44:20.615Z,74.34
2023-02-03T11:46:51.287Z,74.24
2023-02-03T11:49:45.515Z,74.09
2023-02-03T11:52:31.824Z,74.12
2023-02-03T11:55:08.556Z,74.31
2023-02-03T11:57:48.783Z,75.44
2023-02-03T12:00:31.214Z,73.34
2023-02-03T12:03:33.277Z,75.30
2023-02-03T12:06:13.918Z,74.40
2023-02-03T12:08:55.807Z,73.33
2023-02-03T12:11:39.094Z,73.33
2023-02-03T12:14:23.153Z,73.62
2023-02-03T12:17:12.242Z,72.04
2023-02-03T12:19:54.458Z,73.45
2023-02-03T12:22:31.495Z,73.72
2023-02-03T12:25:08.500Z,74.67
2023-02-03T12:27:45.784Z,72.50
2023-02-03T12:30:18.439Z,72.17
2023-02-03T12:32:51.223Z,72.17
2023-02-03T12:35:25.001Z,72.15
2023-02-03T12:37:59.942Z,73.27
2023-02-03T12:40:37.075Z,72.02
2023-02-03T12:43:19.427Z,72.30
2023-02-03T12:45:55.301Z,72.52
2023-02-03T12:48:28.277Z,71.46
2023-02-03T12:51:01.061Z,71.73
2023-02-03T12:53:34.176Z,72.45
2023-02-03T12:56:05.948Z,70.52
2023-02-03T12:58:38.720Z,71.25
2023-02-03T13:01:13.354Z,71.10
2023-02-03T13:03:46.441Z,70.41
2023-02-03T13:06:20.112Z,69.91
2023-02-03T13:08:59.202Z,69.29
2023-02-03T13:11:35.410Z,70.59
2023-02-03T13:14:13.565Z,70.10
2023-02-03T13:16:45.858Z,71.71
2023-02-03T13:19:19.722Z,70.44
2023-02-03T13:21:49.396Z,71.18
2023-02-03T13:24:18.791Z,71.26
2023-02-03T13:27:15.783Z,70.75
2023-02-03T13:29:55.475Z,70.42
2023-02-03T13:32:36.712Z,69.78
2023-02-03T13:35:24.812Z,71.33
2023-02-03T13:38:23.062Z,70.36
2023-02-03T13:41:02.052Z,70.18
2023-02-03T13:43:38.739Z,71.20
2023-02-03T13:46:19.880Z,71.59
2023-02-03T13:48:47.836Z,72.97
2023-02-03T13:51:19.146Z,71.10
2023-02-03T13:53:49.189Z,70.74
2023-02-03T13:56:21.976Z,71.63
2023-02-03T13:59:05.019Z,71.95
2023-02-03T14:01:37.001Z,71.38
2023-02-03T14:04:06.228Z,72.87
2023-02-03T14:07:00.351Z,72.75
2023-02-03T14:09:41.699Z,71.62
2023-02-03T14:12:22.853Z,71.60
2023-02-03T14:15:04.862Z,71.71
2023-02-03T14:18:01.618Z,72.40
2023-02-03T14:20:41.944Z,73.22
2023-02-03T14:23:17.170Z,72.38
2023-02-03T14:25:49.413Z,74.06
2023-02-03T14:28:21.480Z,74.00
2023-02-03T14:31:07.159Z,73.86
2023-02-03T14:34:06.441Z,73.74
2023-02-03T14:36:47.585Z,74.19
2023-02-03T14:39:55.096Z,73.59
2023-02-03T14:42:51.956Z,75.01
2023-02-03T14:45:45.685Z,73.99
2023-02-03T14:48:29.443Z,75.35
2023-02-03T14:51:08.240Z,74.28
2023-02-03T14:53:48.613Z,74.54
2023-02-03T14:56:26.034Z,74.77
2023-02-03T14:59:01.917Z,74.58
2023-02-03T15:02:11.036Z,75.07
2023-02-03T15:04:38.832Z,75.51
2023-02-03T15:07:08.075Z,75.48
2023-02-03T15:09:40.106Z,74.98
2023-02-03T15:12:19.394Z,75.59
2023-02-03T15:14:47.015Z,75.93
2023-02-03T15:17:24.161Z,75.96
2023-02-03T15:19:52.405Z,75.24
2023-02-03T15:22:22.142Z,75.95
2023-02-03T15:24:52.523Z,75.44
2023-02-03T15:27:25.448Z,75.34
2023-02-03T15:29:53.533Z,75.71
2023-02-03T15:32:29.441Z,76.50
2023-02-03T15:34:59.559Z,76.90
2023-02-03T15:37:34.206Z,76.98
2023-02-03T15:40:05.812Z,76.39
2023-02-03T15:42:39.383Z,75.50
2023-02-03T15:45:17.829Z,75.52
2023-02-03T15:47:53.110Z,76.29
2023-02-03T15:50:31.543Z,77.36
2023-02-03T15:53:05.991Z,75.56
2023-02-03T15:55:38.115Z,76.28
2023-02-03T15:58:06.954Z,76.14
2023-02-03T16:00:39.547Z,76.71
2023-02-03T16:03:20.220Z,77.06
2023-02-03T16:05:50.253Z,76.90
2023-02-03T16:08:39.756Z,77.14
2023-02-03T16:11:41.655Z,76.12
2023-02-03T16:14:13.174Z,77.19
2023-02-03T16:16:55.206Z,77.27
2023-02-03T16:19:34.528Z,76.49
2023-02-03T16:22:02.091Z,77.00
2023-02-03T16:24:42.645Z,76.60
2023-02-03T16:27:33.956Z,76.63
2023-02-03T16:30:42.373Z,76.03
2023-02-03T16:33:35.777Z,76.22
2023-02-03T16:36:30.594Z,76.27
2023-02-03T16:39:20.402Z,76.54
2023-02-03T16:42:05.986Z,76.35
2023-02-03T16:44:51.715Z,76.59
2023-02-03T16:47:43.327Z,76.69
2023-02-03T16:50:38.525Z,75.56
2023-02-03T16:53:14.115Z,77.75
2023-02-03T16:55:42.566Z,77.26
2023-02-03T16:58:11.878Z,76.53
2023-02-03T17:00:41.458Z,76.11
2023-02-03T17:03:10.957Z,77.04
2023-02-03T17:05:39.211Z,77.18
2023-02-03T17:08:08.991Z,79.60
2023-02-03T17:10:37.728Z,79.17
2023-02-03T17:13:05.980Z,79.12
2023-02-03T17:15:34.023Z,80.00
2023-02-03T17:18:02.015Z,79.65
2023-02-03T17:20:29.774Z,81.77
2023-02-03T17:22:57.402Z,81.32
2023-02-03T17:25:27.352Z,81.28
2023-02-03T17:27:55.544Z,82.48
2023-02-03T17:30:23.167Z,83.21
2023-02-03T17:32:50.763Z,84.48
2023-02-03T17:35:18.891Z,85.47
2023-02-03T17:37:46.529Z,85.79
2023-02-03T17:54:06.569Z,86.47
2023-02-03T17:56:35.845Z,86.30
2023-02-03T17:59:06.154Z,86.55
2023-02-03T18:01:34.259Z,84.72
2023-02-03T18:04:05.515Z,84.29
2023-02-03T18:06:35.125Z,84.49
2023-02-03T18:09:03.169Z,83.61
2023-02-03T18:11:31.997Z,84.28
2023-02-03T18:14:00.208Z,83.85
2023-02-03T18:16:33.567Z,84.49
2023-02-03T18:19:02.739Z,84.72
2023-02-03T18:21:32.670Z,83.96
2023-02-03T18:24:01.889Z,84.21
2023-02-03T18:26:32.903Z,85.26
2023-02-03T18:29:00.544Z,85.70
2023-02-03T18:31:30.320Z,84.98
2023-02-03T18:34:02.689Z,84.73
2023-02-03T18:36:30.697Z,85.31
2023-02-03T18:38:58.299Z,85.55
2023-02-03T18:41:26.442Z,85.37
2023-02-03T18:43:54.073Z,85.44
2023-02-03T18:46:23.973Z,84.54
2023-02-03T18:48:53.632Z,83.98
2023-02-03T18:51:22.100Z,84.61
2023-02-03T18:53:50.800Z,84.84
2023-02-03T18:56:21.417Z,85.11
2023-02-03T18:58:49.807Z,84.99
2023-02-03T19:01:22.861Z,85.08
2023-02-03T19:03:50.559Z,86.05
2023-02-03T19:06:20.054Z,86.94
2023-02-03T19:08:48.033Z,87.00
2023-02-03T19:11:16.146Z,86.42
2023-02-03T19:13:44.081Z,86.27
2023-02-03T19:16:17.075Z,85.83
2023-02-03T19:18:44.792Z,84.72
2023-02-03T19:21:14.349Z,85.12
2023-02-03T19:23:43.879Z,87.40
2023-02-03T19:26:12.349Z,88.19
2023-02-03T19:28:40.467Z,86.71
2023-02-03T19:31:11.681Z,85.56
2023-02-03T19:33:39.729Z,86.12
2023-02-03T19:36:08.895Z,87.82
2023-02-03T19:38:36.849Z,86.68
2023-02-03T19:41:07.347Z,86.80
2023-02-03T19:43:35.700Z,86.25
2023-02-03T19:46:03.385Z,85.98
2023-02-03T19:48:31.380Z,86.47
2023-02-03T19:50:59.362Z,87.50
2023-02-03T19:53:27.546Z,86.72
2023-02-03T19:55:55.114Z,87.17
2023-02-03T19:58:24.571Z,87.26
2023-02-03T20:00:52.212Z,87.99
2023-02-03T20:03:20.631Z,87.40
2023-02-03T20:05:48.237Z,87.07
2023-02-03T20:08:16.994Z,87.81
2023-02-03T20:10:45.495Z,89.03
2023-02-03T20:13:14.298Z,87.42
2023-02-03T20:15:44.209Z,88.49
2023-02-03T20:18:12.444Z,89.24
2023-02-03T20:20:40.116Z,88.94
2023-02-03T20:23:08.074Z,87.60
2023-02-03T20:25:35.640Z,88.20
2023-02-03T20:28:04.568Z,89.15
2023-02-03T20:30:32.699Z,89.54
2023-02-03T20:33:02.299Z,88.54
2023-02-03T20:35:30.152Z,88.99
2023-02-03T20:37:58.200Z,88.45
2023-02-03T20:40:27.643Z,88.58
2023-02-03T20:42:55.579Z,89.85
2023-02-03T20:45:25.334Z,90.04
2023-02-03T20:47:53.523Z,90.80
2023-02-03T20:50:31.708Z,89.66
2023-02-03T20:53:12.814Z,90.06
2023-02-03T20:55:40.980Z,90.53
2023-02-03T20:58:18.058Z,91.59
2023-02-03T21:00:46.547Z,90.58
2023-02-03T21:03:33.826Z,90.48
2023-02-03T21:06:03.306Z,92.45
2023-02-03T21:08:31.722Z,93.79
2023-02-03T21:10:59.310Z,93.20
2023-02-03T21:13:30.357Z,92.75
2023-02-03T21:16:02.573Z,93.52
2023-02-03T21:18:38.336Z,91.92
2023-02-03T21:21:14.670Z,90.96
2023-02-03T21:23:47.287Z,90.97
2023-02-03T21:26:20.678Z,91.33
2023-02-03T21:28:51.736Z,92.77
2023-02-03T21:31:23.173Z,93.27
2023-02-03T21:33:53.683Z,93.58
2023-02-03T21:36:25.154Z,92.56
2023-02-03T21:38:54.889Z,92.30
2023-02-03T21:41:23.834Z,92.92
2023-02-03T21:43:53.769Z,93.32
2023-02-03T21:46:26.489Z,92.99
2023-02-03T21:48:55.894Z,92.32
2023-02-03T21:51:26.605Z,92.43
2023-02-03T21:53:56.359Z,91.61
2023-02-03T21:56:26.461Z,92.94
2023-02-03T21:58:59.166Z,94.24
2023-02-03T22:01:28.218Z,93.78
2023-02-03T22:03:59.157Z,92.75
2023-02-03T22:06:29.889Z,93.83
2023-02-03T22:08:59.750Z,94.06
2023-02-03T22:11:30.181Z,94.25
2023-02-03T22:13:58.788Z,93.41
2023-02-03T22:16:26.811Z,93.82
2023-02-03T22:18:54.426Z,93.30
2023-02-03T22:21:22.473Z,93.87
2023-02-03T22:23:52.007Z,93.90
2023-02-03T22:26:20.379Z,93.43
2023-02-03T22:28:48.237Z,93.79
2023-02-03T22:31:16.461Z,93.02
2023-02-03T22:33:44.637Z,92.85
2023-02-03T22:36:13.103Z,93.39
2023-02-03T22:38:42.303Z,93.47
2023-02-03T22:41:12.904Z,94.98
2023-02-03T22:43:41.296Z,95.58
2023-02-03T22:46:09.579Z,95.44
2023-02-03T22:48:37.185Z,95.19
2023-02-03T22:51:05.020Z,94.36
2023-02-03T22:53:34.652Z,95.70
2023-02-03T22:56:03.180Z,95.05
2023-02-03T22:58:32.144Z,94.73
2023-02-03T23:01:00.053Z,94.77
2023-02-03T23:03:27.790Z,94.74
2023-02-03T23:05:56.701Z,95.68
2023-02-03T23:08:24.301Z,95.54
2023-02-03T23:10:52.266Z,95.35
2023-02-03T23:13:19.882Z,95.34
2023-02-03T23:15:49.373Z,95.97
2023-02-03T23:18:16.950Z,96.08
2023-02-03T23:20:45.409Z,96.31
2023-02-03T23:23:14.088Z,95.95
2023-02-03T23:25:42.024Z,95.97
2023-02-03T23:28:09.682Z,96.93
2023-02-03T23:30:38.468Z,96.70
2023-02-03T23:33:08.014Z,95.48
2023-02-03T23:35:47.320Z,96.29
2023-02-03T23:38:15.781Z,96.90
2023-02-03T23:40:43.436Z,96.80
2023-02-03T23:43:11.496Z,96.69
2023-02-03T23:45:39.145Z,96.81
2023-02-03T23:48:08.640Z,96.77
2023-02-03T23:50:36.349Z,96.85
2023-02-03T23:53:04.004Z,96.68
2023-02-03T23:55:31.612Z,96.94
2023-02-03T23:57:59.191Z,96.76
